sensor_id;sensor_type;location;lat;lon;timestamp;temperature;humidity
64882;HTU21D;51375;44.836;38.672;2023-12-20T00:01:35;11.41;75.41
64882;HTU21D;51375;44.836;38.672;2023-12-20T00:04:02;11.42;75.42
64882;HTU21D;51375;44.836;38.672;2023-12-20T00:06:28;11.44;75.30
64882;HTU21D;51375;44.836;38.672;2023-12-20T00:08:54;11.42;75.40
64882;HTU21D;51375;44.836;38.672;2023-12-20T00:11:20;11.42;75.44
64882;HTU21D;51375;44.836;38.672;2023-12-20T00:13:46;11.41;75.44
64882;HTU21D;51375;44.836;38.672;2023-12-20T00:16:12;11.41;75.39
64882;HTU21D;51375;44.836;38.672;2023-12-20T00:18:38;11.40;75.50
64882;HTU21D;51375;44.836;38.672;2023-12-20T00:21:04;11.40;75.60
64882;HTU21D;51375;44.836;38.672;2023-12-20T00:23:30;11.40;75.63
64882;HTU21D;51375;44.836;38.672;2023-12-20T00:25:56;11.39;75.70
64882;HTU21D;51375;44.836;38.672;2023-12-20T00:28:22;11.40;75.70
64882;HTU21D;51375;44.836;38.672;2023-12-20T00:30:48;11.44;75.67
64882;HTU21D;51375;44.836;38.672;2023-12-20T00:33:14;11.47;75.61
64882;HTU21D;51375;44.836;38.672;2023-12-20T00:35:40;11.52;75.57
64882;HTU21D;51375;44.836;38.672;2023-12-20T00:38:06;11.55;75.48
64882;HTU21D;51375;44.836;38.672;2023-12-20T00:40:32;11.59;75.34
64882;HTU21D;51375;44.836;38.672;2023-12-20T00:42:59;11.61;75.31
64882;HTU21D;51375;44.836;38.672;2023-12-20T00:45:25;11.64;75.31
64882;HTU21D;51375;44.836;38.672;2023-12-20T00:47:52;11.66;75.27
64882;HTU21D;51375;44.836;38.672;2023-12-20T00:50:18;11.67;75.26
64882;HTU21D;51375;44.836;38.672;2023-12-20T00:52:43;11.63;75.34
64882;HTU21D;51375;44.836;38.672;2023-12-20T00:55:10;11.67;75.38
64882;HTU21D;51375;44.836;38.672;2023-12-20T00:57:36;11.68;75.34
64882;HTU21D;51375;44.836;38.672;2023-12-20T01:00:02;11.69;75.34
64882;HTU21D;51375;44.836;38.672;2023-12-20T01:02:28;11.69;75.29
64882;HTU21D;51375;44.836;38.672;2023-12-20T01:04:54;11.62;75.52
64882;HTU21D;51375;44.836;38.672;2023-12-20T01:07:20;11.61;75.67
64882;HTU21D;51375;44.836;38.672;2023-12-20T01:09:46;11.59;75.76
64882;HTU21D;51375;44.836;38.672;2023-12-20T01:12:12;11.58;75.91
64882;HTU21D;51375;44.836;38.672;2023-12-20T01:14:38;11.59;75.96
64882;HTU21D;51375;44.836;38.672;2023-12-20T01:17:05;11.62;75.92
64882;HTU21D;51375;44.836;38.672;2023-12-20T01:19:31;11.59;75.99
64882;HTU21D;51375;44.836;38.672;2023-12-20T01:21:57;11.61;76.05
64882;HTU21D;51375;44.836;38.672;2023-12-20T01:24:23;11.64;76.06
64882;HTU21D;51375;44.836;38.672;2023-12-20T01:26:49;11.68;76.02
64882;HTU21D;51375;44.836;38.672;2023-12-20T01:29:15;11.73;75.92
64882;HTU21D;51375;44.836;38.672;2023-12-20T01:31:41;11.76;75.83
64882;HTU21D;51375;44.836;38.672;2023-12-20T01:34:07;11.78;75.79
64882;HTU21D;51375;44.836;38.672;2023-12-20T01:36:33;11.82;75.69
64882;HTU21D;51375;44.836;38.672;2023-12-20T01:38:59;11.83;75.67
64882;HTU21D;51375;44.836;38.672;2023-12-20T01:41:25;11.82;75.56
64882;HTU21D;51375;44.836;38.672;2023-12-20T01:43:51;11.82;75.57
64882;HTU21D;51375;44.836;38.672;2023-12-20T01:46:19;11.83;75.60
64882;HTU21D;51375;44.836;38.672;2023-12-20T01:48:45;11.81;75.53
64882;HTU21D;51375;44.836;38.672;2023-12-20T01:51:11;11.82;75.54
64882;HTU21D;51375;44.836;38.672;2023-12-20T01:53:38;11.84;75.50
64882;HTU21D;51375;44.836;38.672;2023-12-20T01:56:04;11.84;75.45
64882;HTU21D;51375;44.836;38.672;2023-12-20T01:58:30;11.82;75.33
64882;HTU21D;51375;44.836;38.672;2023-12-20T02:00:57;11.78;75.29
64882;HTU21D;51375;44.836;38.672;2023-12-20T02:03:24;11.74;75.28
64882;HTU21D;51375;44.836;38.672;2023-12-20T02:05:50;11.73;75.23
64882;HTU21D;51375;44.836;38.672;2023-12-20T02:08:16;11.64;75.30
64882;HTU21D;51375;44.836;38.672;2023-12-20T02:10:42;11.55;75.44
64882;HTU21D;51375;44.836;38.672;2023-12-20T02:13:08;11.41;75.86
64882;HTU21D;51375;44.836;38.672;2023-12-20T02:15:34;11.38;75.98
64882;HTU21D;51375;44.836;38.672;2023-12-20T02:18:02;11.38;76.02
64882;HTU21D;51375;44.836;38.672;2023-12-20T02:20:28;11.38;75.92
64882;HTU21D;51375;44.836;38.672;2023-12-20T02:22:54;11.39;75.76
64882;HTU21D;51375;44.836;38.672;2023-12-20T02:25:20;11.37;75.59
64882;HTU21D;51375;44.836;38.672;2023-12-20T02:27:47;11.33;75.41
64882;HTU21D;51375;44.836;38.672;2023-12-20T02:30:14;11.32;75.25
64882;HTU21D;51375;44.836;38.672;2023-12-20T02:32:40;11.28;75.16
64882;HTU21D;51375;44.836;38.672;2023-12-20T02:35:06;11.24;75.05
64882;HTU21D;51375;44.836;38.672;2023-12-20T02:37:33;11.13;75.10
64882;HTU21D;51375;44.836;38.672;2023-12-20T02:39:59;11.07;75.16
64882;HTU21D;51375;44.836;38.672;2023-12-20T02:42:25;11.01;75.09
64882;HTU21D;51375;44.836;38.672;2023-12-20T02:44:51;10.96;74.98
64882;HTU21D;51375;44.836;38.672;2023-12-20T02:47:16;10.90;74.93
64882;HTU21D;51375;44.836;38.672;2023-12-20T02:49:42;10.85;74.92
64882;HTU21D;51375;44.836;38.672;2023-12-20T02:52:08;10.81;74.89
64882;HTU21D;51375;44.836;38.672;2023-12-20T02:54:34;10.78;74.74
64882;HTU21D;51375;44.836;38.672;2023-12-20T02:57:00;10.73;74.70
64882;HTU21D;51375;44.836;38.672;2023-12-20T02:59:26;10.69;74.65
64882;HTU21D;51375;44.836;38.672;2023-12-20T03:01:53;10.65;74.55
64882;HTU21D;51375;44.836;38.672;2023-12-20T03:04:19;10.62;74.48
64882;HTU21D;51375;44.836;38.672;2023-12-20T03:06:45;10.58;74.33
64882;HTU21D;51375;44.836;38.672;2023-12-20T03:09:10;10.52;74.26
64882;HTU21D;51375;44.836;38.672;2023-12-20T03:11:36;10.48;74.28
64882;HTU21D;51375;44.836;38.672;2023-12-20T03:14:02;10.44;74.24
64882;HTU21D;51375;44.836;38.672;2023-12-20T03:16:28;10.38;74.18
64882;HTU21D;51375;44.836;38.672;2023-12-20T03:18:54;10.28;74.38
64882;HTU21D;51375;44.836;38.672;2023-12-20T03:21:20;10.24;74.44
64882;HTU21D;51375;44.836;38.672;2023-12-20T03:23:46;10.14;74.48
64882;HTU21D;51375;44.836;38.672;2023-12-20T03:26:12;10.04;74.67
64882;HTU21D;51375;44.836;38.672;2023-12-20T03:28:38;10.01;74.89
64882;HTU21D;51375;44.836;38.672;2023-12-20T03:31:04;10.01;74.76
64882;HTU21D;51375;44.836;38.672;2023-12-20T03:33:30;10.01;74.76
64882;HTU21D;51375;44.836;38.672;2023-12-20T03:35:56;10.03;74.66
64882;HTU21D;51375;44.836;38.672;2023-12-20T03:38:22;10.05;74.64
64882;HTU21D;51375;44.836;38.672;2023-12-20T03:40:50;10.07;74.66
64882;HTU21D;51375;44.836;38.672;2023-12-20T03:43:16;10.11;74.57
64882;HTU21D;51375;44.836;38.672;2023-12-20T03:45:42;10.08;74.59
64882;HTU21D;51375;44.836;38.672;2023-12-20T03:48:08;10.06;74.72
64882;HTU21D;51375;44.836;38.672;2023-12-20T03:50:34;10.03;75.02
64882;HTU21D;51375;44.836;38.672;2023-12-20T03:53:00;10.06;75.04
64882;HTU21D;51375;44.836;38.672;2023-12-20T03:55:26;10.11;74.88
64882;HTU21D;51375;44.836;38.672;2023-12-20T03:57:52;10.13;74.74
64882;HTU21D;51375;44.836;38.672;2023-12-20T04:00:19;10.18;74.70
64882;HTU21D;51375;44.836;38.672;2023-12-20T04:02:45;10.20;74.58
64882;HTU21D;51375;44.836;38.672;2023-12-20T04:05:15;10.22;74.55
64882;HTU21D;51375;44.836;38.672;2023-12-20T04:07:41;10.27;74.44
64882;HTU21D;51375;44.836;38.672;2023-12-20T04:10:07;10.25;74.50
64882;HTU21D;51375;44.836;38.672;2023-12-20T04:12:34;10.27;74.54
64882;HTU21D;51375;44.836;38.672;2023-12-20T04:14:59;10.30;74.48
64882;HTU21D;51375;44.836;38.672;2023-12-20T04:17:26;10.27;74.36
64882;HTU21D;51375;44.836;38.672;2023-12-20T04:19:52;10.16;74.61
64882;HTU21D;51375;44.836;38.672;2023-12-20T04:22:18;10.15;74.55
64882;HTU21D;51375;44.836;38.672;2023-12-20T04:24:45;10.12;74.39
64882;HTU21D;51375;44.836;38.672;2023-12-20T04:27:11;10.10;74.21
64882;HTU21D;51375;44.836;38.672;2023-12-20T04:29:37;10.05;74.09
64882;HTU21D;51375;44.836;38.672;2023-12-20T04:32:04;10.00;74.02
64882;HTU21D;51375;44.836;38.672;2023-12-20T04:34:30;9.95;74.09
64882;HTU21D;51375;44.836;38.672;2023-12-20T04:36:56;9.92;74.05
64882;HTU21D;51375;44.836;38.672;2023-12-20T04:39:22;9.89;74.02
64882;HTU21D;51375;44.836;38.672;2023-12-20T04:41:48;9.88;74.02
64882;HTU21D;51375;44.836;38.672;2023-12-20T04:44:15;9.86;73.86
64882;HTU21D;51375;44.836;38.672;2023-12-20T04:46:40;9.85;73.82
64882;HTU21D;51375;44.836;38.672;2023-12-20T04:49:06;9.81;73.73
64882;HTU21D;51375;44.836;38.672;2023-12-20T04:51:35;9.80;73.69
64882;HTU21D;51375;44.836;38.672;2023-12-20T04:54:02;9.78;73.66
64882;HTU21D;51375;44.836;38.672;2023-12-20T04:56:28;9.74;73.63
64882;HTU21D;51375;44.836;38.672;2023-12-20T04:58:54;9.69;73.59
64882;HTU21D;51375;44.836;38.672;2023-12-20T05:01:20;9.65;73.51
64882;HTU21D;51375;44.836;38.672;2023-12-20T05:03:47;9.59;73.54
64882;HTU21D;51375;44.836;38.672;2023-12-20T05:06:13;9.54;73.48
64882;HTU21D;51375;44.836;38.672;2023-12-20T05:08:38;9.51;73.54
64882;HTU21D;51375;44.836;38.672;2023-12-20T05:11:04;9.49;73.52
64882;HTU21D;51375;44.836;38.672;2023-12-20T05:13:30;9.45;73.48
64882;HTU21D;51375;44.836;38.672;2023-12-20T05:15:56;9.42;73.38
64882;HTU21D;51375;44.836;38.672;2023-12-20T05:18:22;9.33;73.57
64882;HTU21D;51375;44.836;38.672;2023-12-20T05:20:50;9.25;73.85
64882;HTU21D;51375;44.836;38.672;2023-12-20T05:23:16;9.18;74.04
64882;HTU21D;51375;44.836;38.672;2023-12-20T05:25:43;9.16;74.21
64882;HTU21D;51375;44.836;38.672;2023-12-20T05:28:08;9.15;74.25
64882;HTU21D;51375;44.836;38.672;2023-12-20T05:30:34;9.18;74.27
64882;HTU21D;51375;44.836;38.672;2023-12-20T05:33:00;9.21;74.20
64882;HTU21D;51375;44.836;38.672;2023-12-20T05:35:26;9.25;74.13
64882;HTU21D;51375;44.836;38.672;2023-12-20T05:37:52;9.29;73.93
64882;HTU21D;51375;44.836;38.672;2023-12-20T05:40:18;9.29;73.79
64882;HTU21D;51375;44.836;38.672;2023-12-20T05:42:44;9.27;73.70
64882;HTU21D;51375;44.836;38.672;2023-12-20T05:45:10;9.31;73.61
64882;HTU21D;51375;44.836;38.672;2023-12-20T05:47:36;9.27;73.69
64882;HTU21D;51375;44.836;38.672;2023-12-20T05:50:02;9.23;73.70
64882;HTU21D;51375;44.836;38.672;2023-12-20T05:52:29;9.14;73.89
64882;HTU21D;51375;44.836;38.672;2023-12-20T05:54:55;9.08;74.15
64882;HTU21D;51375;44.836;38.672;2023-12-20T05:57:24;9.08;74.15
64882;HTU21D;51375;44.836;38.672;2023-12-20T05:59:50;9.11;74.06
64882;HTU21D;51375;44.836;38.672;2023-12-20T06:02:16;9.16;74.03
64882;HTU21D;51375;44.836;38.672;2023-12-20T06:04:45;9.20;73.86
64882;HTU21D;51375;44.836;38.672;2023-12-20T06:07:15;9.24;73.90
64882;HTU21D;51375;44.836;38.672;2023-12-20T06:09:41;9.31;73.96
64882;HTU21D;51375;44.836;38.672;2023-12-20T06:12:07;9.38;73.92
64882;HTU21D;51375;44.836;38.672;2023-12-20T06:14:36;9.47;73.89
64882;HTU21D;51375;44.836;38.672;2023-12-20T06:17:02;9.51;73.99
64882;HTU21D;51375;44.836;38.672;2023-12-20T06:19:28;9.57;74.01
64882;HTU21D;51375;44.836;38.672;2023-12-20T06:21:54;9.60;74.20
64882;HTU21D;51375;44.836;38.672;2023-12-20T06:24:20;9.59;74.60
64882;HTU21D;51375;44.836;38.672;2023-12-20T06:26:47;9.65;74.68
64882;HTU21D;51375;44.836;38.672;2023-12-20T06:29:13;9.72;74.84
64882;HTU21D;51375;44.836;38.672;2023-12-20T06:31:39;9.80;74.93
64882;HTU21D;51375;44.836;38.672;2023-12-20T06:34:04;9.90;75.09
64882;HTU21D;51375;44.836;38.672;2023-12-20T06:36:30;9.99;75.31
64882;HTU21D;51375;44.836;38.672;2023-12-20T06:38:56;10.14;75.57
64882;HTU21D;51375;44.836;38.672;2023-12-20T06:41:23;10.28;75.60
64882;HTU21D;51375;44.836;38.672;2023-12-20T06:43:50;10.43;75.60
64882;HTU21D;51375;44.836;38.672;2023-12-20T06:46:17;10.57;75.73
64882;HTU21D;51375;44.836;38.672;2023-12-20T06:48:43;10.72;75.79
64882;HTU21D;51375;44.836;38.672;2023-12-20T06:51:14;10.87;75.86
64882;HTU21D;51375;44.836;38.672;2023-12-20T06:53:40;10.98;75.98
64882;HTU21D;51375;44.836;38.672;2023-12-20T06:56:06;11.14;76.01
64882;HTU21D;51375;44.836;38.672;2023-12-20T06:58:33;11.25;76.15
64882;HTU21D;51375;44.836;38.672;2023-12-20T07:00:59;11.38;76.15
64882;HTU21D;51375;44.836;38.672;2023-12-20T07:03:25;11.53;75.97
64882;HTU21D;51375;44.836;38.672;2023-12-20T07:05:50;11.64;75.84
64882;HTU21D;51375;44.836;38.672;2023-12-20T07:08:17;11.79;75.67
64882;HTU21D;51375;44.836;38.672;2023-12-20T07:10:42;11.91;75.65
64882;HTU21D;51375;44.836;38.672;2023-12-20T07:13:08;12.04;75.63
64882;HTU21D;51375;44.836;38.672;2023-12-20T07:15:34;12.14;75.42
64882;HTU21D;51375;44.836;38.672;2023-12-20T07:18:02;12.22;75.20
64882;HTU21D;51375;44.836;38.672;2023-12-20T07:20:28;12.31;75.03
64882;HTU21D;51375;44.836;38.672;2023-12-20T07:22:54;12.42;74.86
64882;HTU21D;51375;44.836;38.672;2023-12-20T07:25:20;12.49;74.67
64882;HTU21D;51375;44.836;38.672;2023-12-20T07:27:46;12.57;74.56
64882;HTU21D;51375;44.836;38.672;2023-12-20T07:30:12;12.61;74.15
64882;HTU21D;51375;44.836;38.672;2023-12-20T07:32:38;12.66;73.93
64882;HTU21D;51375;44.836;38.672;2023-12-20T07:35:04;12.70;73.69
64882;HTU21D;51375;44.836;38.672;2023-12-20T07:37:31;12.75;73.70
64882;HTU21D;51375;44.836;38.672;2023-12-20T07:39:57;12.82;73.63
64882;HTU21D;51375;44.836;38.672;2023-12-20T07:42:22;12.92;73.54
64882;HTU21D;51375;44.836;38.672;2023-12-20T07:44:49;12.99;73.10
64882;HTU21D;51375;44.836;38.672;2023-12-20T07:47:15;13.02;72.93
64882;HTU21D;51375;44.836;38.672;2023-12-20T07:49:45;13.02;72.63
64882;HTU21D;51375;44.836;38.672;2023-12-20T07:52:11;13.03;72.60
64882;HTU21D;51375;44.836;38.672;2023-12-20T07:54:36;13.05;72.27
64882;HTU21D;51375;44.836;38.672;2023-12-20T07:57:03;13.07;72.12
64882;HTU21D;51375;44.836;38.672;2023-12-20T07:59:29;13.09;71.64
64882;HTU21D;51375;44.836;38.672;2023-12-20T08:01:54;13.06;71.18
64882;HTU21D;51375;44.836;38.672;2023-12-20T08:04:21;13.03;71.26
64882;HTU21D;51375;44.836;38.672;2023-12-20T08:06:47;13.05;71.25
64882;HTU21D;51375;44.836;38.672;2023-12-20T08:09:13;13.08;71.02
64882;HTU21D;51375;44.836;38.672;2023-12-20T08:11:38;13.08;70.64
64882;HTU21D;51375;44.836;38.672;2023-12-20T08:14:04;13.05;70.43
64882;HTU21D;51375;44.836;38.672;2023-12-20T08:16:30;13.04;70.24
64882;HTU21D;51375;44.836;38.672;2023-12-20T08:18:56;13.04;70.18
64882;HTU21D;51375;44.836;38.672;2023-12-20T08:21:22;13.01;69.06
64882;HTU21D;51375;44.836;38.672;2023-12-20T08:23:48;12.97;69.53
64882;HTU21D;51375;44.836;38.672;2023-12-20T08:26:18;12.95;69.55
64882;HTU21D;51375;44.836;38.672;2023-12-20T08:28:46;12.95;69.57
64882;HTU21D;51375;44.836;38.672;2023-12-20T08:31:16;12.99;69.58
64882;HTU21D;51375;44.836;38.672;2023-12-20T08:33:46;13.04;69.66
64882;HTU21D;51375;44.836;38.672;2023-12-20T08:36:13;13.07;69.53
64882;HTU21D;51375;44.836;38.672;2023-12-20T08:38:39;13.10;69.02
64882;HTU21D;51375;44.836;38.672;2023-12-20T08:41:06;13.11;69.43
64882;HTU21D;51375;44.836;38.672;2023-12-20T08:43:33;13.19;69.52
64882;HTU21D;51375;44.836;38.672;2023-12-20T08:45:59;13.25;69.04
64882;HTU21D;51375;44.836;38.672;2023-12-20T08:48:25;13.27;68.71
64882;HTU21D;51375;44.836;38.672;2023-12-20T08:50:51;13.31;68.84
64882;HTU21D;51375;44.836;38.672;2023-12-20T08:53:18;13.30;68.75
64882;HTU21D;51375;44.836;38.672;2023-12-20T08:55:45;13.34;68.57
64882;HTU21D;51375;44.836;38.672;2023-12-20T08:58:11;13.36;68.42
64882;HTU21D;51375;44.836;38.672;2023-12-20T09:00:37;13.33;68.65
64882;HTU21D;51375;44.836;38.672;2023-12-20T09:03:04;13.33;68.05
64882;HTU21D;51375;44.836;38.672;2023-12-20T09:05:30;13.30;68.36
64882;HTU21D;51375;44.836;38.672;2023-12-20T09:07:56;13.29;68.31
64882;HTU21D;51375;44.836;38.672;2023-12-20T09:10:22;13.25;68.17
64882;HTU21D;51375;44.836;38.672;2023-12-20T09:12:49;13.23;68.08
64882;HTU21D;51375;44.836;38.672;2023-12-20T09:15:15;13.24;68.05
64882;HTU21D;51375;44.836;38.672;2023-12-20T09:17:41;13.29;68.21
64882;HTU21D;51375;44.836;38.672;2023-12-20T09:20:07;13.32;68.07
64882;HTU21D;51375;44.836;38.672;2023-12-20T09:22:34;13.36;67.35
64882;HTU21D;51375;44.836;38.672;2023-12-20T09:25:00;13.32;67.52
64882;HTU21D;51375;44.836;38.672;2023-12-20T09:27:27;13.36;67.27
64882;HTU21D;51375;44.836;38.672;2023-12-20T09:29:53;13.37;67.11
64882;HTU21D;51375;44.836;38.672;2023-12-20T09:32:19;13.35;66.96
64882;HTU21D;51375;44.836;38.672;2023-12-20T09:34:48;13.35;66.75
64882;HTU21D;51375;44.836;38.672;2023-12-20T09:37:14;13.36;66.76
64882;HTU21D;51375;44.836;38.672;2023-12-20T09:39:40;13.40;66.75
64882;HTU21D;51375;44.836;38.672;2023-12-20T09:42:07;13.45;66.59
64882;HTU21D;51375;44.836;38.672;2023-12-20T09:44:34;13.48;66.28
64882;HTU21D;51375;44.836;38.672;2023-12-20T09:47:02;13.47;66.09
64882;HTU21D;51375;44.836;38.672;2023-12-20T09:49:29;13.50;66.24
64882;HTU21D;51375;44.836;38.672;2023-12-20T09:51:56;13.54;66.00
64882;HTU21D;51375;44.836;38.672;2023-12-20T09:54:23;13.59;66.19
64882;HTU21D;51375;44.836;38.672;2023-12-20T09:56:49;13.63;65.66
64882;HTU21D;51375;44.836;38.672;2023-12-20T09:59:15;13.63;65.89
64882;HTU21D;51375;44.836;38.672;2023-12-20T10:01:42;13.64;65.68
64882;HTU21D;51375;44.836;38.672;2023-12-20T10:04:09;13.63;65.31
64882;HTU21D;51375;44.836;38.672;2023-12-20T10:06:42;13.66;65.14
64882;HTU21D;51375;44.836;38.672;2023-12-20T10:09:09;13.68;65.49
64882;HTU21D;51375;44.836;38.672;2023-12-20T10:11:37;13.70;64.99
64882;HTU21D;51375;44.836;38.672;2023-12-20T10:14:04;13.67;64.98
64882;HTU21D;51375;44.836;38.672;2023-12-20T10:16:31;13.64;64.43
64882;HTU21D;51375;44.836;38.672;2023-12-20T10:18:58;13.60;64.85
64882;HTU21D;51375;44.836;38.672;2023-12-20T10:21:24;13.61;65.32
64882;HTU21D;51375;44.836;38.672;2023-12-20T10:23:55;13.63;65.24
64882;HTU21D;51375;44.836;38.672;2023-12-20T10:26:22;13.66;65.35
64882;HTU21D;51375;44.836;38.672;2023-12-20T10:28:56;13.71;65.37
64882;HTU21D;51375;44.836;38.672;2023-12-20T10:31:32;13.79;65.30
64882;HTU21D;51375;44.836;38.672;2023-12-20T10:34:00;13.84;65.22
64882;HTU21D;51375;44.836;38.672;2023-12-20T10:36:27;13.89;65.17
64882;HTU21D;51375;44.836;38.672;2023-12-20T10:38:55;13.91;64.76
64882;HTU21D;51375;44.836;38.672;2023-12-20T10:41:28;13.86;64.43
64882;HTU21D;51375;44.836;38.672;2023-12-20T10:44:02;13.81;64.76
64882;HTU21D;51375;44.836;38.672;2023-12-20T10:46:29;13.85;65.03
64882;HTU21D;51375;44.836;38.672;2023-12-20T10:48:57;13.88;64.88
64882;HTU21D;51375;44.836;38.672;2023-12-20T10:51:23;13.91;64.79
64882;HTU21D;51375;44.836;38.672;2023-12-20T10:53:55;13.94;64.78
64882;HTU21D;51375;44.836;38.672;2023-12-20T10:56:22;13.95;64.82
64882;HTU21D;51375;44.836;38.672;2023-12-20T10:58:51;13.97;64.95
64882;HTU21D;51375;44.836;38.672;2023-12-20T11:01:18;14.01;65.11
64882;HTU21D;51375;44.836;38.672;2023-12-20T11:03:50;14.07;65.07
64882;HTU21D;51375;44.836;38.672;2023-12-20T11:08:51;14.14;64.63
64882;HTU21D;51375;44.836;38.672;2023-12-20T11:11:25;14.08;64.36
64882;HTU21D;51375;44.836;38.672;2023-12-20T11:14:06;14.07;64.66
64882;HTU21D;51375;44.836;38.672;2023-12-20T11:16:37;14.01;64.39
64882;HTU21D;51375;44.836;38.672;2023-12-20T11:19:07;13.95;64.64
64882;HTU21D;51375;44.836;38.672;2023-12-20T11:21:33;13.86;64.46
64882;HTU21D;51375;44.836;38.672;2023-12-20T11:24:02;13.82;64.52
64882;HTU21D;51375;44.836;38.672;2023-12-20T11:26:29;13.82;64.38
64882;HTU21D;51375;44.836;38.672;2023-12-20T11:29:31;13.77;64.42
64882;HTU21D;51375;44.836;38.672;2023-12-20T11:32:00;13.79;64.57
64882;HTU21D;51375;44.836;38.672;2023-12-20T11:34:28;13.82;64.58
64882;HTU21D;51375;44.836;38.672;2023-12-20T11:36:58;13.84;64.60
64882;HTU21D;51375;44.836;38.672;2023-12-20T11:39:26;13.88;64.41
64882;HTU21D;51375;44.836;38.672;2023-12-20T11:41:55;13.89;64.47
64882;HTU21D;51375;44.836;38.672;2023-12-20T11:44:22;13.86;63.94
64882;HTU21D;51375;44.836;38.672;2023-12-20T11:46:48;13.82;64.23
64882;HTU21D;51375;44.836;38.672;2023-12-20T11:49:14;13.84;64.43
64882;HTU21D;51375;44.836;38.672;2023-12-20T11:51:41;13.88;64.48
64882;HTU21D;51375;44.836;38.672;2023-12-20T11:54:08;13.93;63.68
64882;HTU21D;51375;44.836;38.672;2023-12-20T11:56:36;13.86;62.98
64882;HTU21D;51375;44.836;38.672;2023-12-20T11:59:02;13.81;63.19
64882;HTU21D;51375;44.836;38.672;2023-12-20T12:01:28;13.77;63.47
64882;HTU21D;51375;44.836;38.672;2023-12-20T12:04:06;13.79;63.11
64882;HTU21D;51375;44.836;38.672;2023-12-20T12:06:33;13.76;63.14
64882;HTU21D;51375;44.836;38.672;2023-12-20T12:08:59;13.78;63.33
64882;HTU21D;51375;44.836;38.672;2023-12-20T12:11:25;13.81;63.31
64882;HTU21D;51375;44.836;38.672;2023-12-20T12:13:51;13.82;63.31
64882;HTU21D;51375;44.836;38.672;2023-12-20T12:16:19;13.84;63.38
64882;HTU21D;51375;44.836;38.672;2023-12-20T12:18:45;13.89;63.37
64882;HTU21D;51375;44.836;38.672;2023-12-20T12:21:19;13.91;63.10
64882;HTU21D;51375;44.836;38.672;2023-12-20T12:23:46;13.95;63.25
64882;HTU21D;51375;44.836;38.672;2023-12-20T12:26:12;13.98;63.00
64882;HTU21D;51375;44.836;38.672;2023-12-20T12:28:40;13.95;62.78
64882;HTU21D;51375;44.836;38.672;2023-12-20T12:31:14;13.96;62.70
64882;HTU21D;51375;44.836;38.672;2023-12-20T12:33:43;13.97;62.73
64882;HTU21D;51375;44.836;38.672;2023-12-20T12:36:10;14.01;62.76
64882;HTU21D;51375;44.836;38.672;2023-12-20T12:38:37;14.01;62.39
64882;HTU21D;51375;44.836;38.672;2023-12-20T12:41:04;13.98;62.52
64882;HTU21D;51375;44.836;38.672;2023-12-20T12:43:31;13.97;62.56
64882;HTU21D;51375;44.836;38.672;2023-12-20T12:45:57;13.98;62.64
64882;HTU21D;51375;44.836;38.672;2023-12-20T12:48:23;13.98;62.48
64882;HTU21D;51375;44.836;38.672;2023-12-20T12:50:49;13.96;62.26
64882;HTU21D;51375;44.836;38.672;2023-12-20T12:53:17;13.92;62.26
64882;HTU21D;51375;44.836;38.672;2023-12-20T12:55:43;13.88;62.34
64882;HTU21D;51375;44.836;38.672;2023-12-20T12:58:11;13.84;62.28
64882;HTU21D;51375;44.836;38.672;2023-12-20T13:00:36;13.79;62.21
64882;HTU21D;51375;44.836;38.672;2023-12-20T13:03:03;13.74;62.21
64882;HTU21D;51375;44.836;38.672;2023-12-20T13:05:29;13.66;61.92
64882;HTU21D;51375;44.836;38.672;2023-12-20T13:07:56;13.62;62.24
64882;HTU21D;51375;44.836;38.672;2023-12-20T13:10:22;13.56;61.70
64882;HTU21D;51375;44.836;38.672;2023-12-20T13:12:47;13.48;61.87
64882;HTU21D;51375;44.836;38.672;2023-12-20T13:15:13;13.46;61.60
64882;HTU21D;51375;44.836;38.672;2023-12-20T13:17:39;13.37;61.57
64882;HTU21D;51375;44.836;38.672;2023-12-20T13:20:06;13.31;61.73
64882;HTU21D;51375;44.836;38.672;2023-12-20T13:22:32;13.26;61.83
64882;HTU21D;51375;44.836;38.672;2023-12-20T13:24:58;13.24;62.01
64882;HTU21D;51375;44.836;38.672;2023-12-20T13:27:24;13.23;62.05
64882;HTU21D;51375;44.836;38.672;2023-12-20T13:29:50;13.17;62.00
64882;HTU21D;51375;44.836;38.672;2023-12-20T13:32:15;13.11;62.07
64882;HTU21D;51375;44.836;38.672;2023-12-20T13:34:41;13.06;62.18
64882;HTU21D;51375;44.836;38.672;2023-12-20T13:37:07;13.01;62.12
64882;HTU21D;51375;44.836;38.672;2023-12-20T13:39:33;12.94;61.99
64882;HTU21D;51375;44.836;38.672;2023-12-20T13:42:00;12.87;61.89
64882;HTU21D;51375;44.836;38.672;2023-12-20T13:44:27;12.85;62.14
64882;HTU21D;51375;44.836;38.672;2023-12-20T13:46:55;12.81;62.15
64882;HTU21D;51375;44.836;38.672;2023-12-20T13:49:27;12.81;62.34
64882;HTU21D;51375;44.836;38.672;2023-12-20T13:51:54;12.79;62.37
64882;HTU21D;51375;44.836;38.672;2023-12-20T13:54:21;12.81;62.34
64882;HTU21D;51375;44.836;38.672;2023-12-20T13:56:49;12.82;62.29
64882;HTU21D;51375;44.836;38.672;2023-12-20T13:59:16;12.85;62.25
64882;HTU21D;51375;44.836;38.672;2023-12-20T14:01:44;12.84;62.28
64882;HTU21D;51375;44.836;38.672;2023-12-20T14:04:11;12.81;62.14
64882;HTU21D;51375;44.836;38.672;2023-12-20T14:06:39;12.79;62.16
64882;HTU21D;51375;44.836;38.672;2023-12-20T14:09:07;12.74;62.31
64882;HTU21D;51375;44.836;38.672;2023-12-20T14:11:34;12.67;62.35
64882;HTU21D;51375;44.836;38.672;2023-12-20T14:14:07;12.61;62.61
64882;HTU21D;51375;44.836;38.672;2023-12-20T14:16:34;12.56;62.78
64882;HTU21D;51375;44.836;38.672;2023-12-20T14:19:02;12.49;62.82
64882;HTU21D;51375;44.836;38.672;2023-12-20T14:21:35;12.43;62.99
64882;HTU21D;51375;44.836;38.672;2023-12-20T14:24:01;12.38;63.14
64882;HTU21D;51375;44.836;38.672;2023-12-20T14:26:27;12.36;63.24
64882;HTU21D;51375;44.836;38.672;2023-12-20T14:28:53;12.31;63.31
64882;HTU21D;51375;44.836;38.672;2023-12-20T14:31:19;12.28;63.42
64882;HTU21D;51375;44.836;38.672;2023-12-20T14:33:47;12.27;63.40
64882;HTU21D;51375;44.836;38.672;2023-12-20T14:36:14;12.25;63.56
64882;HTU21D;51375;44.836;38.672;2023-12-20T14:38:43;12.25;63.63
64882;HTU21D;51375;44.836;38.672;2023-12-20T14:41:09;12.26;63.66
64882;HTU21D;51375;44.836;38.672;2023-12-20T14:43:35;12.20;63.71
64882;HTU21D;51375;44.836;38.672;2023-12-20T14:46:01;12.14;63.76
64882;HTU21D;51375;44.836;38.672;2023-12-20T14:48:27;12.08;63.87
64882;HTU21D;51375;44.836;38.672;2023-12-20T14:50:53;12.03;64.05
64882;HTU21D;51375;44.836;38.672;2023-12-20T14:53:19;11.97;64.07
64882;HTU21D;51375;44.836;38.672;2023-12-20T14:55:46;11.84;64.35
64882;HTU21D;51375;44.836;38.672;2023-12-20T14:58:12;11.79;64.42
64882;HTU21D;51375;44.836;38.672;2023-12-20T15:00:40;11.78;64.45
64882;HTU21D;51375;44.836;38.672;2023-12-20T15:03:06;11.76;64.51